Time;durP1;ratioP1;P1;durP2;ratioP2;P2;SDS_P1;SDS_P2;PMS_P1;PMS_P2;Temp;Humidity;BMP_temperature;BMP_pressure;BME280_temperature;BME280_humidity;BME280_pressure;Samples;Min_cycle;Max_cycle;Signal;HPM_P1;HPM_P2
2023/10/06 00:01:42;;;;;;;8.55;4.45;;;;;;;;;;5022362;28;20495;-88
2023/10/06 00:04:15;;;;;;;6.70;4.10;;;;;;;;;;5031139;28;20103;-88
2023/10/06 00:06:43;;;;;;;7.10;3.85;;;;;;;;;;5024095;28;20050;-88
2023/10/06 00:09:20;;;;;;;10.18;4.05;;;;;;;;;;5025319;28;20046;-88
2023/10/06 00:11:50;;;;;;;5.78;3.63;;;;;;;;;;5025349;28;20395;-89
2023/10/06 00:14:39;;;;;;;7.40;3.90;;;;;;;;;;5022284;28;20059;-88
2023/10/06 00:17:10;;;;;;;6.28;4.05;;;;;;;;;;5022486;28;20486;-88
2023/10/06 00:19:39;;;;;;;7.30;4.00;;;;;;;;;;5025138;28;20107;-89
2023/10/06 00:24:37;;;;;;;7.82;3.75;;;;;;;;;;5022963;28;20050;-89
2023/10/06 00:27:10;;;;;;;5.38;4.35;;;;;;;;;;5022163;28;20088;-89
2023/10/06 00:29:37;;;;;;;;;;;;;;;;;;5025768;28;20111;-89
2023/10/06 00:34:54;;;;;;;6.88;3.67;;;;;;;;;;5022616;28;20049;-88
2023/10/06 00:37:24;;;;;;;7.00;3.88;;;;;;;;;;5021208;28;20115;-89
2023/10/06 00:39:56;;;;;;;8.38;4.50;;;;;;;;;;5021162;28;20115;-88
2023/10/06 00:42:23;;;;;;;11.57;4.18;;;;;;;;;;5020628;28;20140;-88
2023/10/06 00:44:53;;;;;;;9.98;4.13;;;;;;;;;;5021985;28;20077;-89
2023/10/06 00:47:21;;;;;;;6.97;4.07;;;;;;;;;;5025054;28;20390;-88
2023/10/06 00:49:51;;;;;;;3.95;3.50;;;;;;;;;;5024404;28;20052;-88
2023/10/06 00:52:18;;;;;;;5.55;3.50;;;;;;;;;;5021395;28;20053;-88
2023/10/06 00:54:46;;;;;;;6.30;3.83;;;;;;;;;;5020889;28;20084;-88
2023/10/06 00:57:18;;;;;;;5.97;4.18;;;;;;;;;;5023306;28;20109;-88
2023/10/06 00:59:46;;;;;;;5.93;4.15;;;;;;;;;;5024361;28;20057;-88
2023/10/06 01:02:15;;;;;;;7.32;3.50;;;;;;;;;;5031890;28;20476;-87
2023/10/06 01:04:45;;;;;;;6.30;3.42;;;;;;;;;;5033066;28;20148;-89
2023/10/06 01:07:14;;;;;;;7.90;3.92;;;;;;;;;;5024774;28;20111;-89
2023/10/06 01:09:56;;;;;;;7.15;3.83;;;;;;;;;;5032280;28;20162;-89
2023/10/06 01:12:25;;;;;;;9.88;4.43;;;;;;;;;;5020618;28;20041;-89
2023/10/06 01:15:05;;;;;;;14.30;4.03;;;;;;;;;;5021670;28;20054;-89
2023/10/06 01:17:33;;;;;;;9.57;4.07;;;;;;;;;;5028838;28;20140;-89
2023/10/06 01:20:02;;;;;;;7.45;3.92;;;;;;;;;;5031952;28;20053;-88
2023/10/06 01:22:30;;;;;;;6.25;3.83;;;;;;;;;;5031938;28;20049;-89
2023/10/06 01:24:58;;;;;;;4.78;3.22;;;;;;;;;;5023964;28;20136;-89
2023/10/06 01:27:28;;;;;;;6.72;4.40;;;;;;;;;;5025166;28;20050;-89
2023/10/06 01:30:17;;;;;;;5.90;3.58;;;;;;;;;;5023530;28;20564;-89
2023/10/06 01:32:45;;;;;;;9.15;4.80;;;;;;;;;;5027952;28;20076;-89
2023/10/06 01:35:13;;;;;;;8.52;4.45;;;;;;;;;;5023652;28;20132;-89
2023/10/06 01:37:42;;;;;;;6.15;3.60;;;;;;;;;;5024002;28;20049;-90
2023/10/06 01:40:35;;;;;;;12.85;3.83;;;;;;;;;;5021958;28;20056;-89
2023/10/06 01:43:10;;;;;;;;;;;;;;;;;;5025598;28;20156;-89
2023/10/06 01:45:43;;;;;;;6.60;3.45;;;;;;;;;;5029067;28;19921;-89
2023/10/06 01:48:33;;;;;;;5.07;3.42;;;;;;;;;;5025825;28;20518;-89
2023/10/06 01:50:59;;;;;;;8.40;3.67;;;;;;;;;;5025166;28;20057;-89
2023/10/06 01:53:32;;;;;;;8.35;3.58;;;;;;;;;;5035922;28;20548;-89
2023/10/06 01:56:02;;;;;;;5.35;3.35;;;;;;;;;;5027657;28;20050;-89
2023/10/06 01:58:31;;;;;;;10.50;4.55;;;;;;;;;;5027509;28;20061;-89
2023/10/06 02:00:58;;;;;;;6.78;4.22;;;;;;;;;;5027611;28;20053;-89
2023/10/06 02:03:26;;;;;;;4.65;3.50;;;;;;;;;;5031637;28;20060;-90
2023/10/06 02:05:54;;;;;;;9.25;4.47;;;;;;;;;;5023417;28;20064;-89
2023/10/06 02:08:23;;;;;;;4.25;3.65;;;;;;;;;;5024913;28;20085;-89
2023/10/06 02:10:50;;;;;;;7.38;4.35;;;;;;;;;;5023917;28;20056;-89
2023/10/06 02:13:21;;;;;;;7.45;4.10;;;;;;;;;;5026420;28;20262;-89
2023/10/06 02:15:59;;;;;;;9.10;3.42;;;;;;;;;;5036002;28;20061;-89
2023/10/06 02:18:36;;;;;;;13.55;4.35;;;;;;;;;;5029032;28;20565;-89
2023/10/06 02:21:06;;;;;;;4.85;3.38;;;;;;;;;;5027588;28;20056;-89
2023/10/06 02:23:37;;;;;;;7.13;3.60;;;;;;;;;;5027612;28;20045;-89
2023/10/06 02:26:13;;;;;;;6.35;3.97;;;;;;;;;;5034913;28;20601;-89
2023/10/06 02:28:43;;;;;;;6.80;3.53;;;;;;;;;;5026840;28;20053;-89
2023/10/06 02:31:12;;;;;;;5.88;3.67;;;;;;;;;;5026025;28;20049;-89
2023/10/06 02:33:40;;;;;;;12.38;4.45;;;;;;;;;;5023471;28;20053;-89
2023/10/06 02:36:23;;;;;;;4.32;3.47;;;;;;;;;;5024437;28;20165;-89
2023/10/06 02:38:51;;;;;;;7.72;3.58;;;;;;;;;;5027905;28;20053;-90
2023/10/06 02:41:21;;;;;;;6.20;3.50;;;;;;;;;;5023843;28;20108;-89
2023/10/06 02:43:52;;;;;;;7.18;3.75;;;;;;;;;;5023529;28;20108;-89
2023/10/06 02:46:25;;;;;;;7.43;4.22;;;;;;;;;;5033865;28;20050;-90
2023/10/06 02:48:53;;;;;;;7.47;4.00;;;;;;;;;;5026570;28;20053;-89
2023/10/06 02:51:22;;;;;;;9.50;4.10;;;;;;;;;;5026257;28;20104;-89
2023/10/06 02:53:50;;;;;;;9.20;4.13;;;;;;;;;;5027969;28;20057;-90
2023/10/06 02:56:28;;;;;;;5.82;3.67;;;;;;;;;;5027090;28;20499;-90
2023/10/06 02:59:07;;;;;;;5.57;3.95;;;;;;;;;;5031468;28;20071;-90
2023/10/06 03:01:38;;;;;;;6.20;4.43;;;;;;;;;;5022576;28;20307;-90
2023/10/06 03:04:07;;;;;;;5.47;4.10;;;;;;;;;;5032152;28;20505;-90
2023/10/06 03:06:34;;;;;;;6.65;3.53;;;;;;;;;;5024001;28;20089;-90
2023/10/06 03:09:06;;;;;;;8.38;3.83;;;;;;;;;;5031070;28;20449;-90
2023/10/06 03:11:34;;;;;;;;;;;;;;;;;;5023183;28;20081;-90
2023/10/06 03:14:07;;;;;;;6.28;3.90;;;;;;;;;;5022748;28;19921;-90
2023/10/06 03:16:36;;;;;;;7.35;3.47;;;;;;;;;;5022617;28;20061;-90
2023/10/06 03:19:05;;;;;;;6.47;3.97;;;;;;;;;;5023669;28;20049;-91
2023/10/06 03:21:33;;;;;;;6.10;3.83;;;;;;;;;;5026504;28;20053;-90
2023/10/06 03:24:05;;;;;;;9.13;3.90;;;;;;;;;;5025874;28;20084;-90
2023/10/06 03:26:36;;;;;;;9.68;4.22;;;;;;;;;;5022707;28;20388;-90
2023/10/06 03:29:11;;;;;;;6.15;3.72;;;;;;;;;;5029358;28;20069;-90
2023/10/06 03:31:44;;;;;;;6.25;4.00;;;;;;;;;;5026813;28;20109;-90
2023/10/06 03:34:16;;;;;;;4.63;3.78;;;;;;;;;;5024648;28;20486;-89
2023/10/06 03:36:51;;;;;;;8.55;5.07;;;;;;;;;;5022545;28;20461;-90
2023/10/06 03:39:27;;;;;;;9.07;4.38;;;;;;;;;;5025108;28;20061;-91
2023/10/06 03:42:00;;;;;;;10.02;4.57;;;;;;;;;;5034236;28;20564;-89
2023/10/06 03:44:30;;;;;;;9.98;4.70;;;;;;;;;;5030175;28;20414;-89
2023/10/06 03:47:01;;;;;;;9.00;4.47;;;;;;;;;;5022586;28;20061;-89
2023/10/06 03:49:33;;;;;;;10.13;5.00;;;;;;;;;;5022998;28;20107;-90
2023/10/06 03:52:03;;;;;;;10.30;5.18;;;;;;;;;;5025595;28;20110;-90
2023/10/06 03:54:30;;;;;;;6.20;4.50;;;;;;;;;;5025618;28;20053;-91
2023/10/06 03:56:58;;;;;;;7.78;4.53;;;;;;;;;;5025925;28;20092;-90
2023/10/06 03:59:25;;;;;;;11.88;4.53;;;;;;;;;;5025795;28;20084;-90
2023/10/06 04:01:52;;;;;;;6.13;4.22;;;;;;;;;;5025932;28;20045;-90
2023/10/06 04:04:22;;;;;;;9.88;4.10;;;;;;;;;;5023879;28;20064;-90
2023/10/06 04:06:50;;;;;;;14.25;5.07;;;;;;;;;;5026667;28;20053;-89
2023/10/06 04:09:27;;;;;;;11.38;5.00;;;;;;;;;;5024154;28;20150;-90
2023/10/06 04:11:57;;;;;;;12.23;5.97;;;;;;;;;;5025074;28;20128;-89
2023/10/06 04:14:27;;;;;;;8.30;5.70;;;;;;;;;;5029434;28;20137;-90
2023/10/06 04:16:55;;;;;;;8.98;4.90;;;;;;;;;;5021409;28;20076;-89
2023/10/06 04:19:22;;;;;;;10.00;4.55;;;;;;;;;;5024805;28;20046;-89
2023/10/06 04:21:50;;;;;;;5.32;3.95;;;;;;;;;;5024918;28;20053;-90
2023/10/06 04:24:18;;;;;;;8.25;3.95;;;;;;;;;;5022266;28;20065;-89
2023/10/06 04:26:46;;;;;;;7.75;4.20;;;;;;;;;;5021381;28;20046;-89
2023/10/06 04:29:13;;;;;;;12.77;4.78;;;;;;;;;;5023232;28;20069;-90
2023/10/06 04:31:41;;;;;;;12.40;4.95;;;;;;;;;;5027499;28;20065;-90
2023/10/06 04:34:10;;;;;;;8.80;4.90;;;;;;;;;;5022732;28;20061;-90
2023/10/06 04:36:37;;;;;;;7.72;5.10;;;;;;;;;;5024481;28;20520;-90
2023/10/06 04:39:11;;;;;;;4.80;4.25;;;;;;;;;;5031626;28;20054;-90
2023/10/06 04:41:41;;;;;;;10.13;4.95;;;;;;;;;;5020877;28;20053;-90
2023/10/06 04:44:08;;;;;;;8.68;4.68;;;;;;;;;;5022355;28;20469;-90
2023/10/06 04:46:35;;;;;;;6.25;5.10;;;;;;;;;;5027653;28;20057;-89
2023/10/06 04:49:03;;;;;;;8.18;5.47;;;;;;;;;;5021668;28;20478;-90
2023/10/06 04:51:30;;;;;;;7.75;4.88;;;;;;;;;;5024371;28;20057;-90
2023/10/06 04:53:57;;;;;;;8.65;5.13;;;;;;;;;;5024242;28;20045;-89
2023/10/06 04:56:26;;;;;;;10.25;5.60;;;;;;;;;;5020883;28;20057;-90
2023/10/06 04:58:53;;;;;;;8.65;5.25;;;;;;;;;;5029541;28;20049;-90
2023/10/06 05:01:21;;;;;;;8.60;4.68;;;;;;;;;;5025067;28;20061;-90
2023/10/06 05:03:48;;;;;;;7.47;4.72;;;;;;;;;;5025462;28;20057;-90
2023/10/06 05:06:16;;;;;;;6.00;4.65;;;;;;;;;;5024484;28;20057;-90
2023/10/06 05:08:49;;;;;;;10.85;5.28;;;;;;;;;;5026028;28;20143;-90
2023/10/06 05:11:17;;;;;;;7.75;5.90;;;;;;;;;;5020430;28;20052;-90
2023/10/06 05:13:49;;;;;;;11.15;5.45;;;;;;;;;;5020948;28;20046;-90
2023/10/06 05:16:18;;;;;;;8.13;6.00;;;;;;;;;;5030345;28;20045;-90
2023/10/06 05:18:47;;;;;;;12.90;6.32;;;;;;;;;;5024428;28;20510;-90
2023/10/06 05:21:15;;;;;;;9.52;5.18;;;;;;;;;;5021453;28;20137;-90
2023/10/06 05:23:45;;;;;;;7.72;5.10;;;;;;;;;;5026647;28;20053;-91
2023/10/06 05:26:14;;;;;;;13.07;5.57;;;;;;;;;;5022110;28;20137;-90
2023/10/06 05:28:42;;;;;;;11.43;6.55;;;;;;;;;;5021003;28;20053;-90
2023/10/06 05:31:11;;;;;;;9.43;5.75;;;;;;;;;;5021898;28;20119;-90
2023/10/06 05:33:40;;;;;;;9.80;6.00;;;;;;;;;;5023757;28;20072;-91
2023/10/06 05:36:09;;;;;;;9.02;5.53;;;;;;;;;;5022229;28;20064;-90
2023/10/06 05:38:37;;;;;;;9.52;5.00;;;;;;;;;;5020800;28;20058;-90
2023/10/06 05:41:11;;;;;;;10.70;5.32;;;;;;;;;;5022290;28;20069;-90
2023/10/06 05:43:39;;;;;;;14.85;5.75;;;;;;;;;;5023944;28;20049;-90
2023/10/06 05:46:06;;;;;;;8.32;4.93;;;;;;;;;;5031590;28;20490;-90
2023/10/06 05:48:34;;;;;;;8.95;5.60;;;;;;;;;;5023632;28;20045;-90
2023/10/06 05:51:05;;;;;;;16.80;7.10;;;;;;;;;;5023927;28;20065;-90
2023/10/06 05:53:57;;;;;;;25.80;8.27;;;;;;;;;;5023310;28;20045;-91
2023/10/06 05:56:27;;;;;;;26.98;7.82;;;;;;;;;;5020111;28;20084;-91
2023/10/06 05:58:55;;;;;;;17.33;6.40;;;;;;;;;;5028867;28;20564;-93
2023/10/06 06:01:28;;;;;;;16.17;8.02;;;;;;;;;;5020459;28;20116;-90
2023/10/06 06:03:57;;;;;;;12.07;10.02;;;;;;;;;;5020940;28;20050;-90
2023/10/06 06:06:26;;;;;;;13.00;7.07;;;;;;;;;;5028361;28;20538;-89
2023/10/06 06:08:55;;;;;;;11.73;6.53;;;;;;;;;;5020255;28;20136;-89
2023/10/06 06:11:23;;;;;;;14.32;8.88;;;;;;;;;;5019955;28;20414;-90
2023/10/06 06:13:52;;;;;;;19.15;12.63;;;;;;;;;;5020326;28;20046;-89
2023/10/06 06:16:44;;;;;;;18.75;7.50;;;;;;;;;;5026498;28;20487;-92
2023/10/06 06:19:12;;;;;;;12.43;7.03;;;;;;;;;;5028750;28;20081;-91
2023/10/06 06:21:39;;;;;;;11.48;7.13;;;;;;;;;;5023144;28;20100;-90
2023/10/06 06:24:06;;;;;;;12.07;6.78;;;;;;;;;;5024436;28;20456;-90
2023/10/06 06:26:38;;;;;;;12.07;6.57;;;;;;;;;;5031859;28;20421;-90
2023/10/06 06:29:08;;;;;;;8.27;6.10;;;;;;;;;;5025051;28;20560;-90
2023/10/06 06:31:37;;;;;;;13.38;7.30;;;;;;;;;;5023392;28;20052;-90
2023/10/06 06:34:04;;;;;;;10.93;6.88;;;;;;;;;;5024282;28;20091;-89
2023/10/06 06:36:32;;;;;;;14.50;6.68;;;;;;;;;;5027748;28;20057;-90
2023/10/06 06:39:00;;;;;;;16.75;8.30;;;;;;;;;;5027809;28;20049;-90
2023/10/06 06:41:28;;;;;;;13.63;7.38;;;;;;;;;;5023548;28;20081;-90
2023/10/06 06:43:58;;;;;;;31.00;21.50;;;;;;;;;;5023631;28;20050;-90
2023/10/06 06:46:26;;;;;;;35.88;26.13;;;;;;;;;;5024511;28;20141;-90
2023/10/06 06:48:54;;;;;;;52.25;29.75;;;;;;;;;;5023345;28;20132;-90
2023/10/06 06:51:27;;;;;;;29.48;11.70;;;;;;;;;;5032188;28;20049;-92
2023/10/06 06:53:56;;;;;;;17.17;8.63;;;;;;;;;;5023292;28;20046;-87
2023/10/06 06:56:28;;;;;;;14.60;7.70;;;;;;;;;;5026692;28;20053;-88
2023/10/06 06:58:56;;;;;;;13.00;7.57;;;;;;;;;;5026553;28;20056;-89
2023/10/06 07:01:24;;;;;;;9.02;6.63;;;;;;;;;;5030745;28;20108;-87
2023/10/06 07:03:51;;;;;;;13.80;7.03;;;;;;;;;;5023194;28;20050;-86
2023/10/06 07:06:20;;;;;;;21.70;11.02;;;;;;;;;;5031399;28;20057;-87
2023/10/06 07:08:47;;;;;;;21.80;11.27;;;;;;;;;;5022981;28;20041;-87
2023/10/06 07:11:15;;;;;;;28.83;11.88;;;;;;;;;;5024669;28;20045;-86
2023/10/06 07:13:45;;;;;;;35.05;12.52;;;;;;;;;;5025910;28;20042;-86
2023/10/06 07:16:14;;;;;;;21.73;10.88;;;;;;;;;;5034150;28;20057;-86
2023/10/06 07:18:42;;;;;;;24.45;9.60;;;;;;;;;;5027135;28;20512;-86
2023/10/06 07:21:10;;;;;;;20.48;8.18;;;;;;;;;;5024447;28;20414;-85
2023/10/06 07:23:38;;;;;;;19.05;6.20;;;;;;;;;;5023408;28;20100;-85
2023/10/06 07:26:10;;;;;;;12.95;5.70;;;;;;;;;;5023241;28;20056;-85
2023/10/06 07:28:40;;;;;;;10.07;6.43;;;;;;;;;;5025717;28;20089;-84
2023/10/06 07:31:12;;;;;;;12.35;6.13;;;;;;;;;;5033404;28;20394;-85
2023/10/06 07:33:41;;;;;;;12.30;6.75;;;;;;;;;;5035049;28;20052;-85
2023/10/06 07:36:17;;;;;;;10.05;4.90;;;;;;;;;;5023915;28;20049;-85
2023/10/06 07:38:46;;;;;;;9.98;4.55;;;;;;;;;;5024385;28;20487;-85
2023/10/06 07:41:20;;;;;;;8.50;3.83;;;;;;;;;;5024402;28;20529;-85
2023/10/06 07:43:48;;;;;;;8.57;3.35;;;;;;;;;;5026444;28;20049;-85
2023/10/06 07:46:16;;;;;;;9.20;3.10;;;;;;;;;;5033065;28;20511;-85
2023/10/06 07:48:45;;;;;;;4.80;2.50;;;;;;;;;;5034599;28;20049;-85
2023/10/06 07:51:13;;;;;;;6.50;2.60;;;;;;;;;;5032709;28;20049;-85
2023/10/06 07:53:41;;;;;;;10.07;2.40;;;;;;;;;;5033450;28;20099;-86
2023/10/06 07:56:08;;;;;;;11.80;2.63;;;;;;;;;;5024800;28;20108;-84
2023/10/06 07:58:37;;;;;;;6.43;1.17;;;;;;;;;;5035957;28;20410;-84
2023/10/06 08:01:07;;;;;;;9.15;2.50;;;;;;;;;;5037877;28;20136;-84
2023/10/06 08:03:39;;;;;;;7.75;2.00;;;;;;;;;;5021416;28;20050;-85
2023/10/06 08:06:06;;;;;;;1.73;1.10;;;;;;;;;;5028351;28;20133;-86
2023/10/06 08:08:34;;;;;;;5.95;1.40;;;;;;;;;;5028529;28;20096;-86
2023/10/06 08:11:02;;;;;;;3.78;1.63;;;;;;;;;;5021662;28;20053;-85
2023/10/06 08:13:31;;;;;;;1.67;1.00;;;;;;;;;;5025167;28;20049;-86
2023/10/06 08:15:58;;;;;;;4.15;1.50;;;;;;;;;;5024824;28;20490;-86
2023/10/06 08:18:29;;;;;;;3.13;1.00;;;;;;;;;;5026393;28;20045;-86
2023/10/06 08:21:00;;;;;;;4.25;1.48;;;;;;;;;;5024545;28;20049;-87
2023/10/06 08:23:31;;;;;;;4.85;1.23;;;;;;;;;;5026634;28;20049;-88
2023/10/06 08:26:00;;;;;;;3.60;1.10;;;;;;;;;;5024641;28;20060;-84
2023/10/06 08:28:31;;;;;;;3.83;1.05;;;;;;;;;;5030235;28;20487;-85
2023/10/06 08:31:02;;;;;;;4.22;1.38;;;;;;;;;;5021906;28;20601;-86
2023/10/06 08:33:31;;;;;;;7.05;1.60;;;;;;;;;;5026194;28;20046;-90
2023/10/06 08:36:00;;;;;;;4.38;1.10;;;;;;;;;;5033132;28;20057;-86
2023/10/06 08:38:29;;;;;;;1.92;1.10;;;;;;;;;;5026416;28;20152;-86
2023/10/06 08:41:01;;;;;;;3.92;1.88;;;;;;;;;;5024668;28;20050;-87
2023/10/06 08:43:29;;;;;;;4.30;1.40;;;;;;;;;;5022275;28;20077;-89
2023/10/06 08:46:00;;;;;;;5.95;1.40;;;;;;;;;;5024798;28;20058;-86
2023/10/06 08:48:32;;;;;;;2.70;1.20;;;;;;;;;;5028990;28;20098;-90
2023/10/06 08:51:03;;;;;;;5.20;1.58;;;;;;;;;;5021002;28;20054;-87
2023/10/06 08:53:32;;;;;;;6.18;1.95;;;;;;;;;;5023679;28;20560;-84
2023/10/06 08:55:59;;;;;;;3.70;1.50;;;;;;;;;;5025474;28;20053;-88
2023/10/06 08:58:27;;;;;;;4.38;1.42;;;;;;;;;;5024820;28;20053;-91
2023/10/06 09:00:55;;;;;;;4.57;1.60;;;;;;;;;;5025654;28;20514;-89
2023/10/06 09:03:23;;;;;;;39.80;4.63;;;;;;;;;;5024263;28;20069;-86
2023/10/06 09:05:54;;;;;;;4.93;1.60;;;;;;;;;;5024475;28;20060;-89
2023/10/06 09:08:22;;;;;;;4.75;1.63;;;;;;;;;;5023984;28;20060;-89
2023/10/06 09:10:54;;;;;;;5.55;1.80;;;;;;;;;;5024177;28;20099;-87
2023/10/06 09:13:22;;;;;;;2.90;1.80;;;;;;;;;;5025031;28;20053;-87
2023/10/06 09:15:57;;;;;;;2.92;1.25;;;;;;;;;;5033142;28;20042;-93
2023/10/06 09:18:27;;;;;;;5.78;1.52;;;;;;;;;;5020986;28;20122;-86
2023/10/06 09:20:56;;;;;;;1.92;1.38;;;;;;;;;;5028122;28;20057;-87
2023/10/06 09:23:31;;;;;;;5.85;1.55;;;;;;;;;;5024033;28;20069;-90
2023/10/06 09:26:02;;;;;;;4.15;1.58;;;;;;;;;;5023811;28;20442;-86
2023/10/06 09:28:31;;;;;;;3.03;1.70;;;;;;;;;;5024235;28;20046;-86
2023/10/06 09:31:05;;;;;;;6.47;1.65;;;;;;;;;;5031856;28;20041;-87
2023/10/06 09:33:35;;;;;;;3.70;1.38;;;;;;;;;;5025102;28;20045;-92
2023/10/06 09:36:07;;;;;;;3.08;1.40;;;;;;;;;;5024185;28;20053;-85
2023/10/06 09:38:36;;;;;;;4.18;1.50;;;;;;;;;;5023812;28;20506;-88
2023/10/06 09:41:05;;;;;;;2.47;1.60;;;;;;;;;;5032754;28;20083;-88
2023/10/06 09:43:34;;;;;;;3.58;1.58;;;;;;;;;;5023766;28;20413;-88
2023/10/06 09:46:10;;;;;;;7.60;1.90;;;;;;;;;;5024442;28;20057;-92
2023/10/06 09:48:39;;;;;;;2.60;1.50;;;;;;;;;;5020735;28;20140;-89
2023/10/06 09:51:08;;;;;;;2.45;1.75;;;;;;;;;;5021291;28;20053;-90
2023/10/06 09:53:38;;;;;;;5.60;1.85;;;;;;;;;;5024047;28;20100;-84
2023/10/06 09:56:17;;;;;;;4.57;2.00;;;;;;;;;;5031741;28;20060;-92
2023/10/06 09:58:48;;;;;;;6.97;1.95;;;;;;;;;;5023997;28;20398;-90
2023/10/06 10:01:16;;;;;;;3.33;1.60;;;;;;;;;;5022457;28;20052;-91
2023/10/06 10:03:43;;;;;;;4.63;1.70;;;;;;;;;;5028868;28;20489;-92
2023/10/06 10:06:14;;;;;;;4.13;1.85;;;;;;;;;;5026367;28;20092;-87
2023/10/06 10:08:41;;;;;;;4.97;2.03;;;;;;;;;;5024182;28;20050;-85
2023/10/06 10:11:14;;;;;;;3.67;1.42;;;;;;;;;;5026168;28;20061;-88
2023/10/06 10:13:58;;;;;;;9.93;2.30;;;;;;;;;;5029507;28;20417;-88
2023/10/06 10:16:39;;;;;;;2.65;1.88;;;;;;;;;;5026504;28;20053;-88
2023/10/06 10:19:11;;;;;;;2.10;1.50;;;;;;;;;;5024829;28;20053;-91
2023/10/06 10:21:41;;;;;;;4.60;1.90;;;;;;;;;;5026924;28;20494;-85
2023/10/06 10:24:09;;;;;;;5.05;1.77;;;;;;;;;;5026930;28;20052;-90
2023/10/06 10:26:59;;;;;;;8.02;2.03;;;;;;;;;;5025086;28;20053;-88
2023/10/06 10:29:28;;;;;;;4.88;1.88;;;;;;;;;;5024654;28;20092;-89
2023/10/06 10:32:01;;;;;;;4.80;2.03;;;;;;;;;;5028332;28;20054;-87
2023/10/06 10:34:33;;;;;;;4.57;1.83;;;;;;;;;;5028720;28;20046;-91
2023/10/06 10:37:05;;;;;;;4.70;1.77;;;;;;;;;;5027116;28;20057;-89
2023/10/06 10:39:50;;;;;;;9.18;2.38;;;;;;;;;;5024680;28;20046;-93
2023/10/06 10:42:18;;;;;;;4.25;2.00;;;;;;;;;;5026475;28;20053;-92
2023/10/06 10:44:49;;;;;;;6.03;2.22;;;;;;;;;;5038308;28;20104;-87
2023/10/06 10:47:17;;;;;;;4.32;2.20;;;;;;;;;;5026062;28;20465;-90
2023/10/06 10:49:47;;;;;;;6.35;2.30;;;;;;;;;;5039928;28;20042;-85
2023/10/06 10:52:15;;;;;;;3.35;1.80;;;;;;;;;;5028395;28;20508;-88
2023/10/06 10:54:43;;;;;;;4.97;1.80;;;;;;;;;;5030102;28;20129;-93
2023/10/06 10:57:13;;;;;;;3.72;1.83;;;;;;;;;;5026111;28;20137;-92
2023/10/06 11:02:40;;;;;;;6.00;2.28;;;;;;;;;;5023960;28;20457;-91
2023/10/06 11:05:07;;;;;;;5.28;1.65;;;;;;;;;;5024087;28;20050;-88
2023/10/06 11:07:35;;;;;;;3.10;2.15;;;;;;;;;;5026996;28;20046;-93
2023/10/06 11:10:03;;;;;;;8.90;2.28;;;;;;;;;;5026606;28;20053;-89
2023/10/06 11:12:30;;;;;;;6.93;2.40;;;;;;;;;;5023246;28;20577;-92
2023/10/06 11:15:14;;;;;;;7.57;2.30;;;;;;;;;;5027681;28;20096;-95
2023/10/06 11:17:42;;;;;;;8.00;1.80;;;;;;;;;;5029473;28;20066;-85
2023/10/06 11:20:15;;;;;;;7.45;2.33;;;;;;;;;;5028344;28;20046;-92
2023/10/06 11:22:59;;;;;;;6.22;2.08;;;;;;;;;;5027637;28;20065;-91
2023/10/06 11:25:28;;;;;;;4.55;2.65;;;;;;;;;;5024077;28;20104;-89
2023/10/06 11:28:04;;;;;;;7.15;2.50;;;;;;;;;;5027070;28;20483;-87
2023/10/06 11:30:33;;;;;;;9.00;2.42;;;;;;;;;;5027254;28;20140;-93
2023/10/06 11:33:04;;;;;;;3.75;2.60;;;;;;;;;;5035129;28;20053;-92
2023/10/06 11:35:33;;;;;;;3.38;2.00;;;;;;;;;;5025904;28;20111;-91
2023/10/06 11:38:02;;;;;;;4.22;2.38;;;;;;;;;;5026911;28;20054;-93
2023/10/06 11:40:30;;;;;;;9.57;2.70;;;;;;;;;;5026527;28;20069;-89
2023/10/06 11:43:21;;;;;;;4.63;2.70;;;;;;;;;;5026734;28;20053;-92
2023/10/06 11:46:01;;;;;;;5.55;2.30;;;;;;;;;;5023014;28;20108;-92
2023/10/06 11:48:29;;;;;;;5.20;2.63;;;;;;;;;;5030485;28;20056;-94
2023/10/06 11:51:00;;;;;;;3.28;2.35;;;;;;;;;;5022736;28;20050;-90
2023/10/06 11:53:28;;;;;;;6.13;2.65;;;;;;;;;;5023975;28;20080;-95
2023/10/06 11:56:09;;;;;;;5.13;2.65;;;;;;;;;;5022378;28;20073;-84
2023/10/06 11:58:39;;;;;;;9.98;2.63;;;;;;;;;;5023054;28;20054;-95
2023/10/06 12:01:07;;;;;;;6.40;3.00;;;;;;;;;;5023718;28;20050;-89
2023/10/06 12:03:39;;;;;;;5.10;2.30;;;;;;;;;;5025672;28;20076;-90
2023/10/06 12:06:11;;;;;;;6.03;2.78;;;;;;;;;;5040222;23;20338;-84
2023/10/06 12:08:45;;;;;;;6.25;2.58;;;;;;;;;;5039259;28;20049;-86
2023/10/06 12:11:13;;;;;;;5.68;2.35;;;;;;;;;;5030205;28;20049;-85
2023/10/06 12:13:40;;;;;;;6.50;2.80;;;;;;;;;;5034059;28;20042;-85
2023/10/06 12:16:14;;;;;;;3.15;2.42;;;;;;;;;;5029616;28;20061;-85
2023/10/06 12:18:46;;;;;;;6.90;2.58;;;;;;;;;;5034372;28;20503;-85
2023/10/06 12:21:17;;;;;;;12.38;3.38;;;;;;;;;;5025672;28;20054;-85
2023/10/06 12:23:45;;;;;;;4.32;2.70;;;;;;;;;;5033617;28;20050;-85
2023/10/06 12:26:12;;;;;;;6.05;2.40;;;;;;;;;;5031319;28;20478;-85
2023/10/06 12:28:42;;;;;;;5.55;2.38;;;;;;;;;;5031214;28;20054;-85
2023/10/06 12:31:12;;;;;;;2.92;2.30;;;;;;;;;;5039577;28;20065;-84
2023/10/06 12:33:40;;;;;;;4.50;2.25;;;;;;;;;;5045050;28;20036;-83
2023/10/06 12:36:12;;;;;;;4.40;2.53;;;;;;;;;;5028093;28;20049;-83
2023/10/06 12:38:40;;;;;;;10.48;3.40;;;;;;;;;;5021840;28;20058;-85
2023/10/06 12:41:08;;;;;;;3.70;2.08;;;;;;;;;;5024051;28;20103;-85
2023/10/06 12:43:36;;;;;;;4.80;2.17;;;;;;;;;;5020914;28;20053;-83
2023/10/06 12:46:04;;;;;;;4.50;2.40;;;;;;;;;;5031858;28;20486;-84
2023/10/06 12:48:32;;;;;;;5.82;2.28;;;;;;;;;;5015076;28;20049;-83
2023/10/06 12:50:59;;;;;;;5.07;2.20;;;;;;;;;;5023686;28;20053;-85
2023/10/06 12:53:28;;;;;;;5.15;1.90;;;;;;;;;;5026729;28;20049;-84
2023/10/06 12:55:58;;;;;;;2.55;1.70;;;;;;;;;;5024984;28;20451;-85
2023/10/06 12:58:25;;;;;;;5.53;2.58;;;;;;;;;;5010400;28;20124;-84
2023/10/06 13:00:53;;;;;;;4.45;1.95;;;;;;;;;;5025147;28;20041;-85
2023/10/06 13:03:21;;;;;;;5.28;2.10;;;;;;;;;;5021810;28;20056;-83
2023/10/06 13:05:49;;;;;;;2.97;2.20;;;;;;;;;;5021470;28;20058;-83
2023/10/06 13:08:17;;;;;;;4.53;1.73;;;;;;;;;;5023208;28;20484;-80
2023/10/06 13:10:45;;;;;;;7.60;2.15;;;;;;;;;;5023017;28;20156;-85
2023/10/06 13:13:12;;;;;;;6.45;2.22;;;;;;;;;;5021836;28;20053;-84
2023/10/06 13:15:40;;;;;;;2.97;1.67;;;;;;;;;;5005183;28;20050;-83
2023/10/06 13:18:10;;;;;;;3.10;1.75;;;;;;;;;;5023181;28;20042;-84
2023/10/06 13:20:41;;;;;;;5.25;2.47;;;;;;;;;;5022332;28;20050;-84
2023/10/06 13:23:09;;;;;;;3.83;2.10;;;;;;;;;;5019832;28;20057;-87
2023/10/06 13:25:39;;;;;;;4.70;2.33;;;;;;;;;;5014827;28;20053;-84
2023/10/06 13:28:16;;;;;;;4.07;1.90;;;;;;;;;;5022120;28;20052;-85
2023/10/06 13:30:44;;;;;;;5.00;2.15;;;;;;;;;;5024559;28;20530;-86
2023/10/06 13:33:14;;;;;;;2.88;1.92;;;;;;;;;;5023032;28;20050;-83
2023/10/06 13:35:43;;;;;;;3.08;1.75;;;;;;;;;;5021223;28;20042;-82
2023/10/06 13:38:12;;;;;;;5.72;2.10;;;;;;;;;;5022598;28;20050;-84
2023/10/06 13:40:43;;;;;;;4.03;1.98;;;;;;;;;;5016337;28;20050;-85
2023/10/06 13:43:11;;;;;;;2.55;1.88;;;;;;;;;;5026604;28;20065;-85
2023/10/06 13:45:39;;;;;;;3.22;2.20;;;;;;;;;;5030807;28;20084;-85
2023/10/06 13:48:09;;;;;;;3.13;1.75;;;;;;;;;;5028019;28;20399;-84
2023/10/06 13:50:37;;;;;;;4.93;2.13;;;;;;;;;;5014535;28;20136;-83
2023/10/06 13:53:04;;;;;;;5.22;1.88;;;;;;;;;;5028124;28;20056;-83
2023/10/06 13:55:33;;;;;;;4.63;2.20;;;;;;;;;;5021554;28;20136;-85
2023/10/06 13:58:08;;;;;;;3.40;1.65;;;;;;;;;;5028744;28;20056;-85
2023/10/06 14:00:38;;;;;;;4.70;1.90;;;;;;;;;;5029566;28;20093;-83
2023/10/06 14:03:07;;;;;;;4.28;1.90;;;;;;;;;;5022088;28;20061;-86
2023/10/06 14:05:38;;;;;;;3.08;1.77;;;;;;;;;;5029033;28;20045;-85
2023/10/06 14:08:06;;;;;;;7.03;2.05;;;;;;;;;;5030597;28;20126;-82
2023/10/06 14:10:36;;;;;;;8.27;2.40;;;;;;;;;;5026036;28;20120;-85
2023/10/06 14:13:17;;;;;;;5.20;2.15;;;;;;;;;;5027589;28;20408;-83
2023/10/06 14:15:45;;;;;;;3.90;1.60;;;;;;;;;;5026435;28;20046;-85
2023/10/06 14:18:13;;;;;;;4.55;2.10;;;;;;;;;;5034515;28;20049;-84
2023/10/06 14:20:43;;;;;;;6.28;1.85;;;;;;;;;;5027531;28;20057;-85
2023/10/06 14:23:12;;;;;;;4.18;2.25;;;;;;;;;;5027642;28;20120;-86
2023/10/06 14:25:40;;;;;;;3.17;1.60;;;;;;;;;;5031133;28;20053;-83
2023/10/06 14:28:09;;;;;;;5.75;1.90;;;;;;;;;;5021317;28;20491;-85
2023/10/06 14:30:41;;;;;;;5.20;2.17;;;;;;;;;;5030353;28;20109;-84
2023/10/06 14:35:59;;;;;;;4.30;2.13;;;;;;;;;;5032337;28;20550;-84
2023/10/06 14:46:50;;;;;;;5.03;2.35;;;;;;;;;;5023788;28;20104;-84
2023/10/06 14:49:25;;;;;;;3.40;2.00;;;;;;;;;;5028642;28;20050;-82
2023/10/06 14:51:55;;;;;;;7.10;2.20;;;;;;;;;;5028194;28;20066;-82
2023/10/06 14:54:25;;;;;;;3.10;1.60;;;;;;;;;;5032719;28;20553;-85
2023/10/06 14:56:56;;;;;;;2.33;1.98;;;;;;;;;;5033072;28;20050;-85
2023/10/06 14:59:24;;;;;;;4.28;1.88;;;;;;;;;;5029477;28;20045;-83
2023/10/06 15:01:51;;;;;;;6.18;2.28;;;;;;;;;;5030015;28;20057;-84
2023/10/06 15:04:19;;;;;;;7.68;2.40;;;;;;;;;;5030021;28;20050;-85
2023/10/06 15:06:46;;;;;;;5.47;2.35;;;;;;;;;;5032078;28;20058;-85
2023/10/06 15:09:19;;;;;;;4.35;2.00;;;;;;;;;;5034027;28;20049;-85
2023/10/06 15:11:47;;;;;;;3.00;2.17;;;;;;;;;;5036128;28;20491;-85
2023/10/06 15:14:15;;;;;;;6.18;2.20;;;;;;;;;;5037512;28;20056;-84
2023/10/06 15:16:43;;;;;;;3.95;2.28;;;;;;;;;;5046977;28;20037;-85
2023/10/06 15:19:12;;;;;;;3.58;1.83;;;;;;;;;;5035401;28;20082;-85